createdAt,value
2022-10-23T00:02:45.980Z,101305.91
2022-10-23T00:07:43.516Z,101302.09
2022-10-23T00:12:40.376Z,101293.81
2022-10-23T00:17:37.902Z,101288.06
2022-10-23T00:22:34.769Z,101273.22
2022-10-23T00:27:35.246Z,101268.47
2022-10-23T00:37:29.187Z,101256.28
2022-10-23T00:42:25.689Z,101256.63
2022-10-23T00:47:23.095Z,101270.28
2022-10-23T00:52:19.805Z,101271.78
2022-10-23T00:57:16.799Z,101272.75
2022-10-23T01:02:14.645Z,101289.25
2022-10-23T01:07:15.312Z,101279.28
2022-10-23T01:12:16.075Z,101287.38
2022-10-23T01:17:16.755Z,101266.69
2022-10-23T01:22:21.971Z,101280.38
2022-10-23T01:27:21.535Z,101286.16
2022-10-23T01:32:23.093Z,101276.09
2022-10-23T01:37:24.236Z,101287.31
2022-10-23T01:42:24.336Z,101290.78
2022-10-23T01:47:25.744Z,101294.53
2022-10-23T01:52:31.627Z,101292.25
2022-10-23T01:57:30.042Z,101302.06
2022-10-23T02:02:27.976Z,101293.56
2022-10-23T02:07:27.481Z,101292.31
2022-10-23T02:12:29.620Z,101303.59
2022-10-23T02:17:31.511Z,101300.25
2022-10-23T02:22:30.403Z,101299.72
2022-10-23T02:27:30.902Z,101315.34
2022-10-23T02:32:28.827Z,101324.81
2022-10-23T02:37:25.621Z,101327.91
2022-10-23T02:42:26.328Z,101334.00
2022-10-23T02:47:32.400Z,101343.75
2022-10-23T02:52:33.054Z,101355.00
2022-10-23T02:57:32.579Z,101348.81
2022-10-23T03:02:35.751Z,101342.56
2022-10-23T03:07:33.297Z,101341.47
2022-10-23T03:12:35.096Z,101357.00
2022-10-23T03:17:33.767Z,101355.00
2022-10-23T03:22:30.590Z,101356.94
2022-10-23T03:32:34.544Z,101349.81
2022-10-23T03:37:31.120Z,101352.06
2022-10-23T03:42:27.815Z,101356.13
2022-10-23T03:47:24.858Z,101358.44
2022-10-23T03:52:22.251Z,101353.78
2022-10-23T03:57:20.687Z,101366.66
2022-10-23T04:02:17.719Z,101383.38
2022-10-23T04:07:14.473Z,101385.69
2022-10-23T04:12:11.714Z,101384.19
2022-10-23T04:17:08.437Z,101384.13
2022-10-23T04:22:04.936Z,101372.28
2022-10-23T04:27:03.304Z,101391.06
2022-10-23T04:32:00.544Z,101379.56
2022-10-23T04:36:58.198Z,101384.19
2022-10-23T04:41:54.879Z,101401.47
2022-10-23T04:46:55.029Z,101405.03
2022-10-23T04:51:54.279Z,101411.38
2022-10-23T04:57:09.497Z,101413.28
2022-10-23T05:02:23.893Z,101415.66
2022-10-23T05:07:22.693Z,101417.94
2022-10-23T05:12:31.312Z,101434.34
2022-10-23T05:17:30.216Z,101444.00
2022-10-23T05:22:29.775Z,101441.84
2022-10-23T05:27:27.680Z,101452.66
2022-10-23T05:32:27.509Z,101465.22
2022-10-23T05:37:24.764Z,101475.34
2022-10-23T05:42:32.389Z,101490.38
2022-10-23T05:47:30.893Z,101499.31
2022-10-23T05:52:30.249Z,101512.34
2022-10-23T05:57:57.074Z,101527.56
2022-10-23T06:03:32.104Z,101526.91
2022-10-23T06:08:35.394Z,101549.25
2022-10-23T06:13:33.913Z,101546.56
2022-10-23T06:18:30.490Z,101557.03
2022-10-23T06:23:37.073Z,101572.34
2022-10-23T06:28:49.173Z,101569.75
2022-10-23T06:33:46.362Z,101582.19
2022-10-23T06:38:46.068Z,101583.66
2022-10-23T06:43:43.603Z,101587.06
2022-10-23T06:48:46.204Z,101608.66
2022-10-23T06:53:50.006Z,101608.66
2022-10-23T06:59:09.596Z,101619.09
2022-10-23T07:04:08.477Z,101628.84
2022-10-23T07:09:05.260Z,101615.38
2022-10-23T07:14:20.043Z,101635.72
2022-10-23T07:19:18.795Z,101634.22
2022-10-23T07:24:41.632Z,101631.44
2022-10-23T07:29:49.935Z,101641.31
2022-10-23T07:34:47.827Z,101635.03
2022-10-23T07:39:57.894Z,101622.53
2022-10-23T07:44:55.881Z,101626.97
2022-10-23T07:49:55.158Z,101638.59
2022-10-23T07:54:52.002Z,101645.47
2022-10-23T07:59:50.394Z,101641.28
2022-10-23T08:04:55.903Z,101641.34
2022-10-23T08:10:05.307Z,101628.44
2022-10-23T08:15:03.939Z,101643.41
2022-10-23T08:20:13.020Z,101655.53
2022-10-23T08:25:14.034Z,101638.94
2022-10-23T08:30:11.790Z,101643.75
2022-10-23T08:35:09.103Z,101640.84
2022-10-23T08:40:14.125Z,101646.28
2022-10-23T08:45:36.223Z,101649.41
2022-10-23T08:50:43.703Z,101653.28
2022-10-23T08:55:44.793Z,101650.88
2022-10-23T09:00:42.099Z,101655.00
2022-10-23T09:06:26.128Z,101650.00
2022-10-23T09:11:27.940Z,101646.69
2022-10-23T09:16:30.904Z,101649.78
2022-10-23T09:21:28.156Z,101637.31
2022-10-23T09:26:25.741Z,101638.94
2022-10-23T09:31:22.810Z,101637.38
2022-10-23T09:36:20.630Z,101637.00
2022-10-23T09:41:19.457Z,101626.72
2022-10-23T09:46:18.961Z,101625.00
2022-10-23T09:51:20.177Z,101626.84
2022-10-23T09:56:25.038Z,101621.00
2022-10-23T10:01:26.939Z,101604.34
2022-10-23T10:06:33.574Z,101607.78
2022-10-23T10:11:34.657Z,101602.44
2022-10-23T10:16:37.054Z,101602.00
2022-10-23T10:21:41.564Z,101592.19
2022-10-23T10:26:43.453Z,101586.63
2022-10-23T10:31:50.676Z,101564.97
2022-10-23T10:36:54.640Z,101572.06
2022-10-23T10:41:58.116Z,101544.41
2022-10-23T10:46:57.056Z,101557.34
2022-10-23T10:52:19.171Z,101558.59
2022-10-23T10:57:21.807Z,101557.31
2022-10-23T11:02:26.109Z,101554.25
2022-10-23T11:07:25.904Z,101552.06
2022-10-23T11:12:24.329Z,101544.59
2022-10-23T11:17:25.350Z,101551.31
2022-10-23T11:22:26.011Z,101553.28
2022-10-23T11:27:28.084Z,101559.91
2022-10-23T11:32:37.855Z,101536.06
2022-10-23T11:37:34.728Z,101551.13
2022-10-23T11:42:33.535Z,101552.19
2022-10-23T11:47:39.533Z,101527.97
2022-10-23T11:52:45.531Z,101538.53
2022-10-23T11:58:05.130Z,101530.84
2022-10-23T12:03:03.018Z,101534.69
2022-10-23T12:08:01.115Z,101527.09
2022-10-23T12:12:59.091Z,101524.22
2022-10-23T12:18:08.842Z,101532.66
2022-10-23T12:23:14.953Z,101526.88
2022-10-23T12:28:30.001Z,101521.44
2022-10-23T12:33:36.469Z,101522.41
2022-10-23T12:38:45.969Z,101526.31
2022-10-23T12:43:43.963Z,101523.00
2022-10-23T12:48:47.788Z,101528.47
2022-10-23T12:53:48.195Z,101528.13
2022-10-23T12:58:47.856Z,101526.22
2022-10-23T13:03:46.010Z,101517.25
2022-10-23T13:08:51.058Z,101518.41
2022-10-23T13:14:28.592Z,101515.47
2022-10-23T13:19:26.996Z,101520.53
2022-10-23T13:24:25.564Z,101517.88
2022-10-23T13:34:24.997Z,101499.25
2022-10-23T13:39:24.902Z,101528.25
2022-10-23T13:44:26.126Z,101524.72
2022-10-23T13:49:22.772Z,101530.09
2022-10-23T13:54:23.194Z,101518.41
2022-10-23T13:59:21.025Z,101533.28
2022-10-23T14:04:18.916Z,101531.00
2022-10-23T14:09:17.757Z,101529.94
2022-10-23T14:14:14.451Z,101532.22
2022-10-23T14:19:11.870Z,101535.63
2022-10-23T14:24:08.750Z,101533.38
2022-10-23T14:29:09.826Z,101539.69
2022-10-23T14:34:14.350Z,101538.94
2022-10-23T14:39:11.050Z,101540.31
2022-10-23T14:44:07.773Z,101535.28
2022-10-23T14:49:04.543Z,101530.50
2022-10-23T14:54:03.168Z,101534.34
2022-10-23T14:59:02.343Z,101533.63
2022-10-23T15:03:59.703Z,101543.97
2022-10-23T15:08:56.411Z,101544.72
2022-10-23T15:13:54.224Z,101540.03
2022-10-23T15:18:51.320Z,101517.41
2022-10-23T15:23:48.162Z,101519.94
2022-10-23T15:28:44.838Z,101548.22
2022-10-23T15:33:42.301Z,101551.63
2022-10-23T15:38:39.053Z,101548.34
2022-10-23T15:43:35.902Z,101557.16
2022-10-23T15:48:32.720Z,101566.44
2022-10-23T15:53:30.074Z,101559.69
2022-10-23T15:58:26.775Z,101578.84
2022-10-23T16:03:23.847Z,101588.19
2022-10-23T16:08:20.678Z,101596.84
2022-10-23T16:13:19.390Z,101607.97
2022-10-23T16:18:17.490Z,101611.72
2022-10-23T16:23:14.148Z,101621.28
2022-10-23T16:28:10.820Z,101633.84
2022-10-23T16:33:08.462Z,101628.53
2022-10-23T16:38:05.023Z,101637.16
2022-10-23T16:43:01.617Z,101640.00
2022-10-23T16:48:22.510Z,101644.97
2022-10-23T16:53:19.256Z,101648.47
2022-10-23T16:58:18.357Z,101656.63
2022-10-23T17:03:45.659Z,101661.44
2022-10-23T17:08:42.590Z,101664.97
2022-10-23T17:13:40.099Z,101662.84
2022-10-23T17:18:39.874Z,101669.16
2022-10-23T17:23:41.227Z,101677.41
2022-10-23T17:28:41.039Z,101681.44
2022-10-23T17:33:37.783Z,101678.88
2022-10-23T17:38:35.265Z,101681.78
2022-10-23T17:43:33.161Z,101690.97
2022-10-23T17:48:33.699Z,101689.69
2022-10-23T17:53:30.658Z,101695.41
2022-10-23T17:58:27.367Z,101692.50
2022-10-23T18:03:24.749Z,101694.06
2022-10-23T18:08:21.604Z,101695.09
2022-10-23T18:13:18.256Z,101703.31
2022-10-23T18:18:17.545Z,101706.59
2022-10-23T18:23:15.078Z,101737.47
2022-10-23T18:28:11.697Z,101725.78
2022-10-23T18:33:08.343Z,101758.53
2022-10-23T18:38:05.216Z,101743.72
2022-10-23T18:43:02.632Z,101753.06
2022-10-23T18:48:02.749Z,101730.56
2022-10-23T18:52:59.304Z,101740.44
2022-10-23T18:57:56.270Z,101746.69
2022-10-23T19:02:53.547Z,101743.94
2022-10-23T19:07:50.521Z,101753.94
2022-10-23T19:12:48.472Z,101754.56
2022-10-23T19:17:46.205Z,101746.75
2022-10-23T19:22:44.783Z,101745.09
2022-10-23T19:27:42.968Z,101742.34
2022-10-23T19:32:39.613Z,101734.88
2022-10-23T19:37:38.236Z,101762.69
2022-10-23T19:42:36.711Z,101760.84
2022-10-23T19:47:33.284Z,101751.44
2022-10-23T19:52:31.107Z,101742.44
2022-10-23T19:57:29.851Z,101741.84
2022-10-23T20:02:27.717Z,101747.41
2022-10-23T20:07:24.362Z,101749.16
2022-10-23T20:12:21.027Z,101743.28
2022-10-23T20:17:17.594Z,101738.03
2022-10-23T20:22:15.249Z,101737.88
2022-10-23T20:27:14.721Z,101743.03
2022-10-23T20:32:11.798Z,101744.88
2022-10-23T20:37:08.332Z,101750.69
2022-10-23T20:42:06.733Z,101771.22
2022-10-23T20:47:03.883Z,101781.81
2022-10-23T20:52:03.004Z,101784.25
2022-10-23T20:56:59.566Z,101783.91
2022-10-23T21:01:57.183Z,101777.41
2022-10-23T21:07:09.361Z,101785.69
2022-10-23T21:12:07.486Z,101782.16
2022-10-23T21:17:04.785Z,101779.88
2022-10-23T21:22:01.364Z,101787.00
2022-10-23T21:26:58.075Z,101779.69
2022-10-23T21:31:55.216Z,101779.38
2022-10-23T21:37:12.855Z,101776.06
2022-10-23T21:42:09.600Z,101779.09
2022-10-23T21:47:06.302Z,101780.38
2022-10-23T21:52:04.499Z,101777.69
2022-10-23T21:57:02.612Z,101773.19
2022-10-23T22:01:59.458Z,101783.97
2022-10-23T22:06:57.680Z,101772.50
2022-10-23T22:11:54.980Z,101796.81
2022-10-23T22:16:52.186Z,101800.59
2022-10-23T22:21:50.150Z,101806.28
2022-10-23T22:26:47.966Z,101804.69
2022-10-23T22:31:49.604Z,101809.72
2022-10-23T22:36:46.653Z,101808.16
2022-10-23T22:41:43.272Z,101799.56
2022-10-23T22:46:40.353Z,101777.00
2022-10-23T22:51:38.413Z,101771.06
2022-10-23T22:56:35.079Z,101765.94
2022-10-23T23:01:33.121Z,101787.91
2022-10-23T23:06:30.239Z,101781.63
2022-10-23T23:11:27.970Z,101790.91
2022-10-23T23:16:27.448Z,101794.97
2022-10-23T23:21:24.279Z,101785.13
2022-10-23T23:26:23.157Z,101790.34
2022-10-23T23:31:21.993Z,101798.38
2022-10-23T23:36:19.562Z,101798.88
2022-10-23T23:41:17.770Z,101806.50
2022-10-23T23:46:14.821Z,101795.72
2022-10-23T23:51:12.244Z,101796.53
2022-10-23T23:56:10.325Z,101796.94
